Time;durP1;ratioP1;P1;durP2;ratioP2;P2;SDS_P1;SDS_P2;PMS_P1;PMS_P2;Temp;Humidity;BMP_temperature;BMP_pressure;BME280_temperature;BME280_humidity;BME280_pressure;Samples;Min_cycle;Max_cycle;Signal;HPM_P1;HPM_P2
2023/03/25 00:01:46;;;;;;;3.57;1.77;;;;;;;;;;5001621;28;20182;-74
2023/03/25 00:04:51;;;;;;;3.03;2.03;;;;;;;;;;5013693;28;20185;-74
2023/03/25 00:07:55;;;;;;;2.57;1.70;;;;;;;;;;5001600;28;20229;-74
2023/03/25 00:11:02;;;;;;;3.50;1.60;;;;;;;;;;5013614;28;20193;-74
2023/03/25 00:14:05;;;;;;;2.27;1.80;;;;;;;;;;5013517;28;20185;-74
2023/03/25 00:17:12;;;;;;;3.97;1.80;;;;;;;;;;5001372;28;20654;-74
2023/03/25 00:20:17;;;;;;;2.70;1.50;;;;;;;;;;5001475;28;20186;-74
2023/03/25 00:23:22;;;;;;;3.70;1.70;;;;;;;;;;4990217;28;20182;-74
2023/03/25 00:26:28;;;;;;;1.77;1.50;;;;;;;;;;5001921;28;20181;-74
2023/03/25 00:29:32;;;;;;;2.40;1.50;;;;;;;;;;5001382;28;20558;-74
2023/03/25 00:32:38;;;;;;;4.40;1.53;;;;;;;;;;4990161;28;20193;-74
2023/03/25 00:35:43;;;;;;;3.83;1.70;;;;;;;;;;5013399;28;20213;-74
2023/03/25 00:38:48;;;;;;;2.30;1.53;;;;;;;;;;5000849;28;20225;-74
2023/03/25 00:41:56;;;;;;;3.83;1.67;;;;;;;;;;5001304;28;20201;-74
2023/03/25 00:45:00;;;;;;;2.70;1.37;;;;;;;;;;5005160;28;20185;-74
2023/03/25 00:48:06;;;;;;;3.93;1.40;;;;;;;;;;5004676;28;20220;-74
2023/03/25 00:51:12;;;;;;;2.23;1.30;;;;;;;;;;5017143;28;20185;-74
2023/03/25 00:54:17;;;;;;;2.03;1.30;;;;;;;;;;4997390;28;20185;-74
2023/03/25 00:57:21;;;;;;;1.37;1.23;;;;;;;;;;5024774;28;20554;-73
2023/03/25 01:00:25;;;;;;;2.97;1.60;;;;;;;;;;5036949;28;20622;-74
2023/03/25 01:03:30;;;;;;;3.80;1.40;;;;;;;;;;5036729;28;20189;-74
2023/03/25 01:06:35;;;;;;;4.63;1.40;;;;;;;;;;5024219;28;20180;-74
2023/03/25 01:09:40;;;;;;;4.23;2.07;;;;;;;;;;5013324;28;20638;-74
2023/03/25 01:12:44;;;;;;;2.70;1.93;;;;;;;;;;5024358;28;20189;-74
2023/03/25 01:15:49;;;;;;;2.10;1.40;;;;;;;;;;5041459;28;20231;-74
2023/03/25 01:18:53;;;;;;;3.33;1.63;;;;;;;;;;5056498;28;20580;-74
2023/03/25 01:21:58;;;;;;;2.00;1.40;;;;;;;;;;5043922;28;20542;-73
2023/03/25 01:25:02;;;;;;;2.13;1.30;;;;;;;;;;5043961;28;20184;-74
2023/03/25 01:28:08;;;;;;;2.30;1.37;;;;;;;;;;5043803;28;20211;-73
2023/03/25 01:31:13;;;;;;;3.10;1.13;;;;;;;;;;5055817;28;20172;-74
2023/03/25 01:34:18;;;;;;;2.97;1.50;;;;;;;;;;5056631;28;20180;-74
2023/03/25 01:37:24;;;;;;;2.30;1.27;;;;;;;;;;5043584;28;20684;-74
2023/03/25 01:40:28;;;;;;;3.07;1.20;;;;;;;;;;5032010;28;20196;-74
2023/03/25 01:43:33;;;;;;;7.87;1.87;;;;;;;;;;5043266;28;20180;-73
2023/03/25 01:46:38;;;;;;;4.17;1.30;;;;;;;;;;5043743;28;20625;-73
2023/03/25 01:49:44;;;;;;;4.00;1.40;;;;;;;;;;5043397;28;20204;-74
2023/03/25 01:52:50;;;;;;;5.00;1.30;;;;;;;;;;5056012;28;20189;-74
2023/03/25 01:55:55;;;;;;;2.87;1.30;;;;;;;;;;5042166;28;20208;-74
2023/03/25 01:59:05;;;;;;;2.73;1.20;;;;;;;;;;5055230;28;20215;-73
2023/03/25 02:02:16;;;;;;;3.73;1.57;;;;;;;;;;5055503;28;20640;-73
2023/03/25 02:05:43;;;;;;;2.33;1.30;;;;;;;;;;5042988;28;20197;-73
2023/03/25 02:08:49;;;;;;;2.20;1.37;;;;;;;;;;5042780;28;20592;-73
2023/03/25 02:11:53;;;;;;;3.80;1.30;;;;;;;;;;5031896;28;20184;-74
2023/03/25 02:15:01;;;;;;;4.30;1.10;;;;;;;;;;5034258;28;20251;-74
2023/03/25 02:18:12;;;;;;;2.47;1.27;;;;;;;;;;5035766;28;20225;-74
2023/03/25 02:22:10;;;;;;;1.17;1.07;;;;;;;;;;5035283;28;20523;-74
2023/03/25 02:26:02;;;;;;;2.10;1.10;;;;;;;;;;5013843;28;20204;-74
2023/03/25 02:29:42;;;;;;;3.90;1.17;;;;;;;;;;5016175;28;20225;-74
2023/03/25 02:33:10;;;;;;;3.70;1.10;;;;;;;;;;4944046;28;20187;-74
2023/03/25 02:36:29;;;;;;;1.70;0.90;;;;;;;;;;5035193;28;20208;-73
2023/03/25 02:40:09;;;;;;;1.97;0.90;;;;;;;;;;5022786;28;20185;-73
2023/03/25 02:43:40;;;;;;;2.50;1.00;;;;;;;;;;5034016;28;20193;-73
2023/03/25 02:46:54;;;;;;;2.30;1.40;;;;;;;;;;5028358;28;20184;-74
2023/03/25 02:50:06;;;;;;;3.43;1.17;;;;;;;;;;5033552;28;20201;-73
2023/03/25 02:53:15;;;;;;;1.67;0.80;;;;;;;;;;5033524;28;20220;-73
2023/03/25 02:56:22;;;;;;;2.37;1.03;;;;;;;;;;5022348;28;20209;-74
2023/03/25 02:59:31;;;;;;;2.83;1.10;;;;;;;;;;5033660;28;20176;-73
2023/03/25 03:02:37;;;;;;;1.83;1.20;;;;;;;;;;5033469;28;20181;-73
2023/03/25 03:05:44;;;;;;;3.47;1.00;;;;;;;;;;5033058;28;20558;-73
2023/03/25 03:08:48;;;;;;;1.87;1.07;;;;;;;;;;5033139;28;20221;-73
2023/03/25 03:12:23;;;;;;;2.73;1.00;;;;;;;;;;5045187;28;20632;-73
2023/03/25 03:15:50;;;;;;;2.30;0.80;;;;;;;;;;5047441;28;20211;-73
2023/03/25 03:19:20;;;;;;;3.77;1.10;;;;;;;;;;5053645;28;20219;-74
2023/03/25 03:22:41;;;;;;;3.30;1.00;;;;;;;;;;5053660;28;20199;-74
2023/03/25 03:25:54;;;;;;;1.67;0.87;;;;;;;;;;5041962;28;20180;-73
2023/03/25 03:29:20;;;;;;;2.47;0.67;;;;;;;;;;5041753;28;20220;-73
2023/03/25 03:32:35;;;;;;;1.80;0.90;;;;;;;;;;5053538;28;20564;-73
2023/03/25 03:35:56;;;;;;;2.10;0.90;;;;;;;;;;5053665;28;20196;-73
2023/03/25 03:39:09;;;;;;;3.33;0.97;;;;;;;;;;5029701;28;20596;-74
2023/03/25 03:42:26;;;;;;;2.23;0.80;;;;;;;;;;5053896;28;20192;-73
2023/03/25 03:45:55;;;;;;;1.33;0.77;;;;;;;;;;5053629;28;20189;-73
2023/03/25 03:49:03;;;;;;;2.63;0.90;;;;;;;;;;5053250;28;20220;-73
2023/03/25 03:52:13;;;;;;;4.17;1.13;;;;;;;;;;5041267;28;20180;-74
2023/03/25 03:55:24;;;;;;;1.03;0.60;;;;;;;;;;5041794;28;20184;-73
2023/03/25 03:58:33;;;;;;;2.67;0.70;;;;;;;;;;5053100;28;20588;-74
2023/03/25 04:01:46;;;;;;;1.73;0.77;;;;;;;;;;5040973;28;20181;-73
2023/03/25 04:04:52;;;;;;;1.57;0.90;;;;;;;;;;5053612;28;20184;-74
2023/03/25 04:08:01;;;;;;;3.07;1.37;;;;;;;;;;5040767;28;20216;-73
2023/03/25 04:11:15;;;;;;;2.10;0.90;;;;;;;;;;5053020;28;20185;-73
2023/03/25 04:14:20;;;;;;;1.20;0.80;;;;;;;;;;5040865;28;20207;-74
2023/03/25 04:17:24;;;;;;;2.10;1.13;;;;;;;;;;5052113;28;20236;-74
2023/03/25 04:20:33;;;;;;;6.77;1.00;;;;;;;;;;5052886;28;20184;-73
2023/03/25 04:23:39;;;;;;;2.93;0.97;;;;;;;;;;5053065;28;20184;-74
2023/03/25 04:26:44;;;;;;;1.80;1.00;;;;;;;;;;5053396;28;20184;-74
2023/03/25 04:29:50;;;;;;;3.73;1.03;;;;;;;;;;5040727;28;20560;-74
2023/03/25 04:32:54;;;;;;;4.20;1.00;;;;;;;;;;5040413;28;20192;-73
2023/03/25 04:36:00;;;;;;;3.30;1.00;;;;;;;;;;5052682;28;20668;-73
2023/03/25 04:39:06;;;;;;;0.90;0.70;;;;;;;;;;5052689;28;20220;-73
2023/03/25 04:42:12;;;;;;;2.70;0.90;;;;;;;;;;5040658;28;20188;-73
2023/03/25 04:45:16;;;;;;;2.87;1.00;;;;;;;;;;5052655;28;20204;-73
2023/03/25 04:48:29;;;;;;;3.97;0.80;;;;;;;;;;5040442;28;20212;-73
2023/03/25 04:51:33;;;;;;;1.97;0.80;;;;;;;;;;5052871;28;20189;-73
2023/03/25 04:54:37;;;;;;;3.13;1.00;;;;;;;;;;5052872;28;20180;-73
2023/03/25 04:57:41;;;;;;;2.83;0.83;;;;;;;;;;5040175;28;20233;-73
2023/03/25 05:00:49;;;;;;;2.33;0.80;;;;;;;;;;5052496;28;20545;-72
2023/03/25 05:03:53;;;;;;;1.80;0.73;;;;;;;;;;5040519;28;20184;-73
2023/03/25 05:06:57;;;;;;;2.83;0.77;;;;;;;;;;5052666;28;20172;-72
2023/03/25 05:10:02;;;;;;;3.53;1.00;;;;;;;;;;5052740;28;20188;-74
2023/03/25 05:13:06;;;;;;;2.93;0.90;;;;;;;;;;5051859;28;20176;-73
2023/03/25 05:16:10;;;;;;;2.30;1.10;;;;;;;;;;5052222;28;20565;-73
2023/03/25 05:19:17;;;;;;;3.07;1.00;;;;;;;;;;5029439;28;20208;-73
2023/03/25 05:22:22;;;;;;;3.00;0.90;;;;;;;;;;5052463;28;20180;-73
2023/03/25 05:25:27;;;;;;;3.40;1.10;;;;;;;;;;5052269;28;20204;-73
2023/03/25 05:28:32;;;;;;;3.87;1.17;;;;;;;;;;5040268;28;20216;-73
2023/03/25 05:31:36;;;;;;;3.13;1.03;;;;;;;;;;5056189;28;20180;-73
2023/03/25 05:34:40;;;;;;;5.70;1.37;;;;;;;;;;5043785;28;20660;-73
2023/03/25 05:37:44;;;;;;;3.67;1.23;;;;;;;;;;5055515;28;20235;-73
2023/03/25 05:40:49;;;;;;;4.53;1.07;;;;;;;;;;5055959;28;20180;-73
2023/03/25 05:43:54;;;;;;;3.43;0.70;;;;;;;;;;5031964;28;20204;-73
2023/03/25 05:47:00;;;;;;;1.67;0.80;;;;;;;;;;5060213;23;20237;-72
2023/03/25 05:50:04;;;;;;;2.77;0.80;;;;;;;;;;5015068;28;20189;-70
2023/03/25 05:53:12;;;;;;;7.17;3.30;;;;;;;;;;5015650;28;20205;-71
2023/03/25 05:56:18;;;;;;;6.93;2.60;;;;;;;;;;5014768;28;20648;-71
2023/03/25 05:59:22;;;;;;;4.90;1.20;;;;;;;;;;4992635;28;20541;-71
2023/03/25 06:02:26;;;;;;;2.70;1.13;;;;;;;;;;5015640;28;20194;-72
2023/03/25 06:05:30;;;;;;;2.83;1.03;;;;;;;;;;5015520;28;20189;-70
2023/03/25 06:08:34;;;;;;;2.70;1.13;;;;;;;;;;5015438;28;20217;-71
2023/03/25 06:11:45;;;;;;;3.57;1.30;;;;;;;;;;5015677;28;20189;-70
2023/03/25 06:14:52;;;;;;;2.43;1.30;;;;;;;;;;5003568;28;20638;-70
2023/03/25 06:17:57;;;;;;;4.67;2.23;;;;;;;;;;5015418;28;20237;-69
2023/03/25 06:21:02;;;;;;;2.10;0.80;;;;;;;;;;5015240;28;20191;-70
2023/03/25 06:24:06;;;;;;;5.70;1.20;;;;;;;;;;5015147;28;20181;-70
2023/03/25 06:27:16;;;;;;;4.97;1.27;;;;;;;;;;5015588;28;20213;-69
2023/03/25 06:30:20;;;;;;;2.87;1.77;;;;;;;;;;5014487;28;20543;-70
2023/03/25 06:33:25;;;;;;;4.90;1.50;;;;;;;;;;5014137;28;20685;-70
2023/03/25 06:36:30;;;;;;;2.67;1.03;;;;;;;;;;5014019;28;20205;-70
2023/03/25 06:39:36;;;;;;;1.67;1.00;;;;;;;;;;5015148;28;20189;-70
2023/03/25 06:42:43;;;;;;;5.07;1.30;;;;;;;;;;5003436;28;20186;-70
2023/03/25 06:46:13;;;;;;;3.73;0.80;;;;;;;;;;5014436;28;20528;-71
2023/03/25 06:49:35;;;;;;;5.03;1.00;;;;;;;;;;5014970;28;20193;-70
2023/03/25 06:52:40;;;;;;;3.03;1.20;;;;;;;;;;5002743;28;20185;-69
2023/03/25 06:55:44;;;;;;;5.60;1.10;;;;;;;;;;5014319;28;20189;-70
2023/03/25 06:58:48;;;;;;;4.20;1.20;;;;;;;;;;5014456;28;20241;-69
2023/03/25 07:01:52;;;;;;;4.43;1.10;;;;;;;;;;5013830;28;20181;-70
2023/03/25 07:04:56;;;;;;;2.80;0.90;;;;;;;;;;5013610;28;20189;-70
2023/03/25 07:08:01;;;;;;;3.43;1.17;;;;;;;;;;5022529;28;20244;-69
2023/03/25 07:11:06;;;;;;;3.40;1.00;;;;;;;;;;5021727;28;20194;-69
2023/03/25 07:14:11;;;;;;;4.60;0.93;;;;;;;;;;5023052;28;20194;-69
2023/03/25 07:17:14;;;;;;;4.77;1.33;;;;;;;;;;5009304;28;20233;-69
2023/03/25 07:20:19;;;;;;;3.17;0.90;;;;;;;;;;5019633;28;20654;-69
2023/03/25 07:23:23;;;;;;;3.77;0.90;;;;;;;;;;5020579;28;20185;-69
2023/03/25 07:26:27;;;;;;;1.70;0.90;;;;;;;;;;5008780;28;20193;-68
2023/03/25 07:29:31;;;;;;;3.23;0.87;;;;;;;;;;5008256;28;20186;-69
2023/03/25 07:32:35;;;;;;;1.43;0.60;;;;;;;;;;5009611;28;20194;-69
2023/03/25 07:35:39;;;;;;;1.50;0.93;;;;;;;;;;5022356;28;20654;-69
2023/03/25 07:38:44;;;;;;;5.87;2.30;;;;;;;;;;4997634;28;20228;-69
2023/03/25 07:41:48;;;;;;;2.03;0.70;;;;;;;;;;5019212;28;20534;-69
2023/03/25 07:45:07;;;;;;;2.60;0.67;;;;;;;;;;5010424;28;20186;-69
2023/03/25 07:48:15;;;;;;;4.00;0.87;;;;;;;;;;5002891;28;20697;-69
2023/03/25 07:51:19;;;;;;;1.20;0.63;;;;;;;;;;5022613;28;20543;-70
2023/03/25 07:54:23;;;;;;;3.67;0.80;;;;;;;;;;5000318;28;20196;-70
2023/03/25 07:57:27;;;;;;;1.90;0.80;;;;;;;;;;5023793;28;20224;-70
2023/03/25 08:00:31;;;;;;;5.27;0.90;;;;;;;;;;5014076;28;20646;-69
2023/03/25 08:03:37;;;;;;;2.37;1.00;;;;;;;;;;5009655;28;20189;-69
2023/03/25 08:06:41;;;;;;;5.70;0.80;;;;;;;;;;5017007;28;20210;-69
2023/03/25 08:09:45;;;;;;;7.70;3.40;;;;;;;;;;5016611;28;20194;-69
2023/03/25 08:12:51;;;;;;;1.00;0.63;;;;;;;;;;5017233;28;20197;-69
2023/03/25 08:15:54;;;;;;;1.57;0.60;;;;;;;;;;5012929;28;20209;-70
2023/03/25 08:18:59;;;;;;;2.60;0.70;;;;;;;;;;5013061;28;20237;-70
2023/03/25 08:22:03;;;;;;;1.47;0.80;;;;;;;;;;5013232;28;20197;-70
2023/03/25 08:25:07;;;;;;;3.60;0.90;;;;;;;;;;5013176;28;20185;-70
2023/03/25 08:28:16;;;;;;;3.90;0.90;;;;;;;;;;5012233;28;20217;-70
2023/03/25 08:31:20;;;;;;;2.70;0.70;;;;;;;;;;5012245;28;20670;-69
2023/03/25 08:34:26;;;;;;;2.30;0.87;;;;;;;;;;5012260;28;20190;-70
2023/03/25 08:37:34;;;;;;;2.13;0.70;;;;;;;;;;5000809;28;20705;-69
2023/03/25 08:40:38;;;;;;;1.70;0.70;;;;;;;;;;5013073;28;20212;-70
2023/03/25 08:43:42;;;;;;;1.17;0.57;;;;;;;;;;5000936;28;20185;-70
2023/03/25 08:46:46;;;;;;;3.83;0.97;;;;;;;;;;5004744;28;20200;-71
2023/03/25 08:49:51;;;;;;;3.23;0.83;;;;;;;;;;5009266;28;20185;-70
2023/03/25 08:52:57;;;;;;;2.07;0.83;;;;;;;;;;5020535;28;20676;-70
2023/03/25 08:56:01;;;;;;;2.70;0.70;;;;;;;;;;5032516;28;20205;-69
2023/03/25 08:59:05;;;;;;;4.03;0.80;;;;;;;;;;5020571;28;20696;-70
2023/03/25 09:02:11;;;;;;;0.87;0.60;;;;;;;;;;5032599;28;20523;-70
2023/03/25 09:05:15;;;;;;;1.30;0.70;;;;;;;;;;5023767;28;20188;-70
2023/03/25 09:08:19;;;;;;;2.50;0.77;;;;;;;;;;5036261;28;20228;-70
2023/03/25 09:11:24;;;;;;;1.80;1.00;;;;;;;;;;5036554;28;20185;-71
2023/03/25 09:14:27;;;;;;;13.83;8.73;;;;;;;;;;5024475;28;20201;-70
2023/03/25 09:17:31;;;;;;;1.37;0.70;;;;;;;;;;5023841;28;20232;-70
2023/03/25 09:20:36;;;;;;;1.27;0.60;;;;;;;;;;5036403;28;20180;-70
2023/03/25 09:23:40;;;;;;;1.80;1.00;;;;;;;;;;5036083;28;20180;-69
2023/03/25 09:26:44;;;;;;;0.80;0.57;;;;;;;;;;5036306;28;20184;-70
2023/03/25 09:29:48;;;;;;;0.60;0.50;;;;;;;;;;5037220;28;20173;-69
2023/03/25 09:32:52;;;;;;;2.40;0.63;;;;;;;;;;5035632;28;20525;-70
2023/03/25 09:35:56;;;;;;;1.63;0.70;;;;;;;;;;5035594;28;20184;-71
2023/03/25 09:39:00;;;;;;;1.17;0.43;;;;;;;;;;5035610;28;20237;-70
2023/03/25 09:42:23;;;;;;;1.13;0.50;;;;;;;;;;5035762;28;20200;-70
2023/03/25 09:45:39;;;;;;;1.57;0.77;;;;;;;;;;5035942;28;20185;-70
2023/03/25 09:48:46;;;;;;;1.73;0.60;;;;;;;;;;5001396;28;20212;-71
2023/03/25 09:51:52;;;;;;;1.40;0.40;;;;;;;;;;5035890;28;20542;-71
2023/03/25 09:55:03;;;;;;;1.40;0.50;;;;;;;;;;5036388;28;20181;-70
2023/03/25 09:58:33;;;;;;;0.70;0.50;;;;;;;;;;5023896;28;20232;-71
2023/03/25 10:02:01;;;;;;;0.97;0.50;;;;;;;;;;5023680;28;20193;-71
2023/03/25 10:05:18;;;;;;;2.63;0.60;;;;;;;;;;5012208;28;20181;-70
2023/03/25 10:08:33;;;;;;;1.10;0.50;;;;;;;;;;5035302;28;20213;-70
2023/03/25 10:12:25;;;;;;;4.03;0.60;;;;;;;;;;5023288;28;20185;-70
2023/03/25 10:16:04;;;;;;;1.70;0.53;;;;;;;;;;4974449;28;20689;-70
2023/03/25 10:19:37;;;;;;;0.93;0.50;;;;;;;;;;4977379;28;20244;-70
2023/03/25 10:22:57;;;;;;;0.60;0.50;;;;;;;;;;5022802;28;20185;-70
2023/03/25 10:26:07;;;;;;;0.50;0.47;;;;;;;;;;5035121;28;20189;-70
2023/03/25 10:29:16;;;;;;;0.60;0.50;;;;;;;;;;5022802;28;20244;-70
2023/03/25 10:32:33;;;;;;;1.67;0.40;;;;;;;;;;5034834;28;20185;-70
2023/03/25 10:35:41;;;;;;;1.57;0.57;;;;;;;;;;5022991;28;20185;-70
2023/03/25 10:38:49;;;;;;;1.07;0.40;;;;;;;;;;5035322;28;20220;-70
2023/03/25 10:41:58;;;;;;;1.80;0.67;;;;;;;;;;5034746;28;20185;-70
2023/03/25 10:45:02;;;;;;;0.90;0.60;;;;;;;;;;5022492;28;20177;-70
2023/03/25 10:48:27;;;;;;;2.50;0.67;;;;;;;;;;5034284;28;20224;-70
2023/03/25 10:51:34;;;;;;;1.30;0.50;;;;;;;;;;5034285;28;20181;-71
2023/03/25 10:54:42;;;;;;;3.20;0.80;;;;;;;;;;5022516;28;20181;-70
2023/03/25 10:57:47;;;;;;;1.90;0.70;;;;;;;;;;5022495;28;20221;-71
2023/03/25 11:00:51;;;;;;;1.60;0.60;;;;;;;;;;5011392;28;20184;-71
2023/03/25 11:03:59;;;;;;;2.70;0.60;;;;;;;;;;5022248;28;20641;-70
2023/03/25 11:07:15;;;;;;;3.07;0.83;;;;;;;;;;5022316;28;20185;-70
2023/03/25 11:10:34;;;;;;;2.07;0.70;;;;;;;;;;5027664;28;20205;-69
2023/03/25 11:13:40;;;;;;;1.03;0.50;;;;;;;;;;5016967;28;20201;-71
2023/03/25 11:16:51;;;;;;;1.87;0.67;;;;;;;;;;5001321;28;20209;-70
2023/03/25 11:20:00;;;;;;;2.00;0.70;;;;;;;;;;5023291;28;20222;-70
2023/03/25 11:23:26;;;;;;;2.47;0.70;;;;;;;;;;5028090;28;20205;-69
2023/03/25 11:26:39;;;;;;;1.70;0.70;;;;;;;;;;5013864;28;20190;-70
2023/03/25 11:29:50;;;;;;;2.47;0.50;;;;;;;;;;5032073;28;20201;-70
2023/03/25 11:32:58;;;;;;;4.43;0.80;;;;;;;;;;5029868;28;20209;-70
2023/03/25 11:36:16;;;;;;;1.63;0.67;;;;;;;;;;5031244;28;20204;-70
2023/03/25 11:39:38;;;;;;;0.90;0.40;;;;;;;;;;5033920;28;20221;-70
2023/03/25 11:42:48;;;;;;;2.60;0.70;;;;;;;;;;5021423;28;20186;-70
2023/03/25 11:45:52;;;;;;;2.00;0.50;;;;;;;;;;5021504;28;20201;-70
2023/03/25 11:49:07;;;;;;;2.23;0.50;;;;;;;;;;5035024;23;20241;-73
2023/03/25 11:52:16;;;;;;;3.77;0.70;;;;;;;;;;5001367;28;20542;-74
2023/03/25 11:55:30;;;;;;;2.40;0.53;;;;;;;;;;5000173;28;20205;-73
2023/03/25 11:58:37;;;;;;;0.70;0.40;;;;;;;;;;4992910;28;20237;-73
2023/03/25 12:01:46;;;;;;;1.07;0.50;;;;;;;;;;4995115;28;20646;-73
2023/03/25 12:04:57;;;;;;;1.00;0.50;;;;;;;;;;4993776;28;20201;-73
2023/03/25 12:08:14;;;;;;;6.13;4.60;;;;;;;;;;5008192;28;20709;-73
2023/03/25 12:11:27;;;;;;;0.97;0.50;;;;;;;;;;5013358;28;20181;-72
2023/03/25 12:14:47;;;;;;;0.73;0.43;;;;;;;;;;5012390;28;20201;-74
2023/03/25 12:18:15;;;;;;;4.00;0.40;;;;;;;;;;5013386;28;20705;-73
2023/03/25 12:21:56;;;;;;;1.00;0.50;;;;;;;;;;5013042;28;20181;-72
2023/03/25 12:25:13;;;;;;;0.70;0.50;;;;;;;;;;5013294;28;20182;-73
2023/03/25 12:28:23;;;;;;;0.47;0.40;;;;;;;;;;5012460;28;20226;-73
2023/03/25 12:32:13;;;;;;;2.13;0.40;;;;;;;;;;5001156;28;20185;-73
2023/03/25 12:35:26;;;;;;;0.43;0.30;;;;;;;;;;5001236;28;20189;-73
2023/03/25 12:38:59;;;;;;;2.20;0.57;;;;;;;;;;5012749;28;20237;-73
2023/03/25 12:42:41;;;;;;;3.47;0.63;;;;;;;;;;5017156;28;20178;-73
2023/03/25 12:46:08;;;;;;;6.90;0.80;;;;;;;;;;5005054;28;20173;-73
2023/03/25 12:49:54;;;;;;;2.37;0.70;;;;;;;;;;5015883;28;20217;-74
2023/03/25 12:53:23;;;;;;;5.70;1.10;;;;;;;;;;5016865;28;20658;-74
2023/03/25 12:56:42;;;;;;;6.77;1.03;;;;;;;;;;5004907;28;20197;-74
2023/03/25 13:00:06;;;;;;;0.37;0.37;;;;;;;;;;5016348;28;20217;-73
2023/03/25 13:03:48;;;;;;;0.53;0.53;;;;;;;;;;5011294;28;20182;-74
2023/03/25 13:07:01;;;;;;;3.60;0.80;;;;;;;;;;5016588;28;20178;-74
2023/03/25 13:10:14;;;;;;;4.03;0.93;;;;;;;;;;5015936;28;20527;-74
2023/03/25 13:13:23;;;;;;;5.40;0.80;;;;;;;;;;5016385;28;20185;-74
2023/03/25 13:16:30;;;;;;;3.47;0.90;;;;;;;;;;4981976;28;20561;-74
2023/03/25 13:19:40;;;;;;;18.17;2.23;;;;;;;;;;5015669;28;20221;-73
2023/03/25 13:22:53;;;;;;;24.30;3.13;;;;;;;;;;5016486;28;20638;-74
2023/03/25 13:26:01;;;;;;;3.07;0.60;;;;;;;;;;5004704;28;20190;-74
2023/03/25 13:29:11;;;;;;;19.83;1.47;;;;;;;;;;5016106;28;20563;-75
2023/03/25 13:32:24;;;;;;;15.23;1.80;;;;;;;;;;5015603;28;20186;-75
2023/03/25 13:35:54;;;;;;;807.07;120.47;;;;;;;;;;5016522;28;20198;-75
2023/03/25 13:39:05;;;;;;;3.43;1.23;;;;;;;;;;5003858;28;20304;-75
2023/03/25 13:42:19;;;;;;;114.90;18.23;;;;;;;;;;5004547;28;20189;-78
2023/03/25 13:45:27;;;;;;;137.33;17.33;;;;;;;;;;5003833;28;20228;-75
2023/03/25 13:48:46;;;;;;;24.90;3.60;;;;;;;;;;5003632;28;20232;-74
2023/03/25 13:51:50;;;;;;;533.37;68.67;;;;;;;;;;5015996;28;20197;-73
2023/03/25 13:54:59;;;;;;;8.20;1.87;;;;;;;;;;5003885;28;20196;-74
2023/03/25 13:58:38;;;;;;;149.23;17.80;;;;;;;;;;5014994;28;20217;-74
2023/03/25 14:02:00;;;;;;;112.60;15.33;;;;;;;;;;5015731;28;20668;-73
2023/03/25 14:05:24;;;;;;;984.37;179.93;;;;;;;;;;5015762;28;20192;-74
2023/03/25 14:08:56;;;;;;;20.17;4.23;;;;;;;;;;5003770;28;20228;-74
2023/03/25 14:12:03;;;;;;;35.00;7.53;;;;;;;;;;5015776;28;20189;-73
2023/03/25 14:15:16;;;;;;;14.40;3.37;;;;;;;;;;5014879;28;20650;-74
2023/03/25 14:18:20;;;;;;;233.47;31.80;;;;;;;;;;5015591;28;20217;-74
2023/03/25 14:21:41;;;;;;;81.13;10.47;;;;;;;;;;4991912;28;20205;-74
2023/03/25 14:24:46;;;;;;;47.63;6.13;;;;;;;;;;5014641;28;20216;-74
2023/03/25 14:27:50;;;;;;;31.10;6.07;;;;;;;;;;4991973;28;20225;-73
2023/03/25 14:31:13;;;;;;;52.60;8.20;;;;;;;;;;5015116;28;20177;-73
2023/03/25 14:34:23;;;;;;;25.97;3.17;;;;;;;;;;5014279;28;20189;-73
2023/03/25 14:37:32;;;;;;;23.20;6.83;;;;;;;;;;5014136;28;20217;-73
2023/03/25 14:40:41;;;;;;;7.07;4.40;;;;;;;;;;5002448;28;20230;-73
2023/03/25 14:43:51;;;;;;;4.90;1.57;;;;;;;;;;4991555;28;20182;-73
2023/03/25 14:47:01;;;;;;;31.17;6.07;;;;;;;;;;5014682;28;20555;-73
2023/03/25 14:50:20;;;;;;;280.00;78.23;;;;;;;;;;5002612;28;20189;-74
2023/03/25 14:53:26;;;;;;;387.87;85.40;;;;;;;;;;5014491;28;20213;-73
2023/03/25 14:56:36;;;;;;;24.87;6.80;;;;;;;;;;5014259;28;20220;-73
2023/03/25 14:59:57;;;;;;;5.70;2.10;;;;;;;;;;5014102;28;20689;-73
2023/03/25 15:03:07;;;;;;;54.73;15.83;;;;;;;;;;5014098;28;20182;-74
2023/03/25 15:06:17;;;;;;;6.70;1.60;;;;;;;;;;5002662;28;20266;-73
2023/03/25 15:09:22;;;;;;;10.07;2.93;;;;;;;;;;5001998;28;20523;-73
2023/03/25 15:12:26;;;;;;;162.17;15.33;;;;;;;;;;5014119;28;20209;-73
2023/03/25 15:15:44;;;;;;;16.83;6.73;;;;;;;;;;5001897;28;20209;-72
2023/03/25 15:18:48;;;;;;;6.90;2.57;;;;;;;;;;5014151;28;20563;-72
2023/03/25 15:22:06;;;;;;;7.10;4.87;;;;;;;;;;5002422;28;20626;-73
2023/03/25 15:25:17;;;;;;;9.10;2.83;;;;;;;;;;5002106;28;20189;-73
2023/03/25 15:28:42;;;;;;;11.33;3.17;;;;;;;;;;5001818;28;20571;-74
2023/03/25 15:32:05;;;;;;;5.27;2.03;;;;;;;;;;5014141;28;20189;-74
2023/03/25 15:35:47;;;;;;;5.77;1.40;;;;;;;;;;5013355;28;20186;-73
2023/03/25 15:39:11;;;;;;;1.63;0.80;;;;;;;;;;5012893;28;20213;-73
2023/03/25 15:42:50;;;;;;;1.90;1.37;;;;;;;;;;5014013;28;20189;-73
2023/03/25 15:46:03;;;;;;;2.30;1.10;;;;;;;;;;5012773;28;20186;-73
2023/03/25 15:49:25;;;;;;;0.90;0.70;;;;;;;;;;5001391;28;20221;-73
2023/03/25 15:53:07;;;;;;;2.27;0.90;;;;;;;;;;5013741;28;20181;-73
2023/03/25 15:56:28;;;;;;;2.90;0.70;;;;;;;;;;5013766;28;20190;-73
2023/03/25 15:59:41;;;;;;;1.30;0.80;;;;;;;;;;5013817;28;20213;-73
2023/03/25 16:02:56;;;;;;;1.43;0.80;;;;;;;;;;4997517;28;20237;-73
2023/03/25 16:06:04;;;;;;;1.00;0.70;;;;;;;;;;5004189;28;20201;-73
2023/03/25 16:09:17;;;;;;;1.07;0.70;;;;;;;;;;5002608;28;20210;-73
2023/03/25 16:12:24;;;;;;;2.03;0.70;;;;;;;;;;5000309;28;20183;-73
2023/03/25 16:15:31;;;;;;;1.73;0.60;;;;;;;;;;4990229;28;20186;-74
2023/03/25 16:18:38;;;;;;;2.10;0.73;;;;;;;;;;5003458;28;20229;-73
2023/03/25 16:21:47;;;;;;;0.60;0.60;;;;;;;;;;4993804;28;20186;-73
2023/03/25 16:24:54;;;;;;;0.77;0.50;;;;;;;;;;4992787;28;20552;-75
2023/03/25 16:28:00;;;;;;;0.67;0.40;;;;;;;;;;4993498;28;20221;-74
2023/03/25 16:31:04;;;;;;;1.47;0.60;;;;;;;;;;4993512;28;20198;-73
2023/03/25 16:34:14;;;;;;;2.83;1.57;;;;;;;;;;4992882;28;20663;-73
2023/03/25 16:37:19;;;;;;;1.40;0.80;;;;;;;;;;4981723;28;20221;-73
2023/03/25 16:40:28;;;;;;;1.53;0.70;;;;;;;;;;4981790;28;20210;-73
2023/03/25 16:43:32;;;;;;;0.93;0.50;;;;;;;;;;4993353;28;20182;-73
2023/03/25 16:46:36;;;;;;;0.60;0.60;;;;;;;;;;4993298;28;20194;-74
2023/03/25 16:49:44;;;;;;;1.30;0.60;;;;;;;;;;4981244;28;20213;-73
2023/03/25 16:52:49;;;;;;;2.00;0.73;;;;;;;;;;4989373;28;20540;-73
2023/03/25 16:56:20;;;;;;;1.10;0.60;;;;;;;;;;5012316;28;20205;-73
2023/03/25 16:59:32;;;;;;;4.10;0.80;;;;;;;;;;5012309;28;20190;-73
2023/03/25 17:02:40;;;;;;;0.60;0.57;;;;;;;;;;5012744;28;20205;-73
2023/03/25 17:05:55;;;;;;;2.40;0.60;;;;;;;;;;5001018;28;20186;-73
2023/03/25 17:09:01;;;;;;;2.23;0.70;;;;;;;;;;5012642;28;20702;-73
2023/03/25 17:12:08;;;;;;;2.80;1.43;;;;;;;;;;5012965;28;20201;-74
2023/03/25 17:15:16;;;;;;;7.63;4.90;;;;;;;;;;5012149;28;20197;-73
2023/03/25 17:18:26;;;;;;;1.97;1.10;;;;;;;;;;5012725;28;20217;-73
2023/03/25 17:21:33;;;;;;;1.93;1.00;;;;;;;;;;5011750;28;20221;-74
2023/03/25 17:24:53;;;;;;;1.47;0.73;;;;;;;;;;5001356;28;20189;-73
2023/03/25 17:28:24;;;;;;;1.80;0.70;;;;;;;;;;4995346;28;20229;-75
2023/03/25 17:31:39;;;;;;;0.60;0.50;;;;;;;;;;5005711;28;20554;-74
2023/03/25 17:34:53;;;;;;;1.83;0.57;;;;;;;;;;5005156;28;20545;-74
2023/03/25 17:37:58;;;;;;;2.23;0.70;;;;;;;;;;5000721;28;20229;-75
2023/03/25 17:41:06;;;;;;;1.27;0.50;;;;;;;;;;4984499;28;20214;-74
2023/03/25 17:44:15;;;;;;;1.73;0.57;;;;;;;;;;4996645;28;20190;-74
2023/03/25 17:47:20;;;;;;;1.40;0.80;;;;;;;;;;4984078;28;20590;-75
2023/03/25 17:50:26;;;;;;;0.80;0.67;;;;;;;;;;4996212;28;20524;-75
2023/03/25 17:53:30;;;;;;;1.13;1.00;;;;;;;;;;4996188;28;20186;-73
2023/03/25 17:56:37;;;;;;;3.80;0.90;;;;;;;;;;4984304;28;20520;-74
2023/03/25 17:59:41;;;;;;;1.87;0.80;;;;;;;;;;4996594;28;20182;-74
2023/03/25 18:02:46;;;;;;;1.80;0.73;;;;;;;;;;4984263;28;20651;-74
2023/03/25 18:05:54;;;;;;;1.60;0.90;;;;;;;;;;4995621;28;20182;-73
2023/03/25 18:08:58;;;;;;;3.70;0.80;;;;;;;;;;4983715;28;20225;-73
2023/03/25 18:12:03;;;;;;;0.87;0.77;;;;;;;;;;4984131;28;20182;-73
2023/03/25 18:15:07;;;;;;;1.10;0.77;;;;;;;;;;4996298;28;20198;-73
2023/03/25 18:18:18;;;;;;;3.57;1.03;;;;;;;;;;4995650;28;20222;-74
2023/03/25 18:21:22;;;;;;;1.87;1.10;;;;;;;;;;4995995;28;20218;-73
2023/03/25 18:24:26;;;;;;;2.60;1.40;;;;;;;;;;4995632;28;20190;-73
2023/03/25 18:27:30;;;;;;;2.67;1.30;;;;;;;;;;4972297;28;20701;-75
2023/03/25 18:30:45;;;;;;;1.30;1.00;;;;;;;;;;4983697;28;20183;-75
2023/03/25 18:33:50;;;;;;;1.40;0.90;;;;;;;;;;4972309;28;20198;-74
2023/03/25 18:36:56;;;;;;;2.30;1.10;;;;;;;;;;4994644;28;20190;-73
2023/03/25 18:40:00;;;;;;;2.33;1.40;;;;;;;;;;4983051;28;20206;-73
2023/03/25 18:43:05;;;;;;;3.80;1.20;;;;;;;;;;4983313;28;20663;-73
2023/03/25 18:46:13;;;;;;;2.80;1.20;;;;;;;;;;4995134;28;20205;-73
2023/03/25 18:49:18;;;;;;;2.67;1.47;;;;;;;;;;4994997;28;20225;-74
2023/03/25 18:52:23;;;;;;;4.53;1.33;;;;;;;;;;4995303;28;20632;-75
2023/03/25 18:55:29;;;;;;;1.73;1.20;;;;;;;;;;4995224;28;20194;-74
2023/03/25 18:58:34;;;;;;;2.53;1.20;;;;;;;;;;4995101;28;20222;-74
2023/03/25 19:01:38;;;;;;;2.93;1.40;;;;;;;;;;4995158;28;20214;-74